sensor_id;sensor_type;location;lat;lon;timestamp;P1;durP1;ratioP1;P2;durP2;ratioP2
23290;SDS011;11814;44.686;10.842;2023-11-19T00:00:29;14.23;;;8.68;;
23290;SDS011;11814;44.686;10.842;2023-11-19T00:02:54;10.85;;;8.30;;
23290;SDS011;11814;44.686;10.842;2023-11-19T00:05:20;15.70;;;8.00;;
23290;SDS011;11814;44.686;10.842;2023-11-19T00:07:46;13.02;;;8.23;;
23290;SDS011;11814;44.686;10.842;2023-11-19T00:10:12;13.82;;;8.20;;
23290;SDS011;11814;44.686;10.842;2023-11-19T00:12:43;9.88;;;7.43;;
23290;SDS011;11814;44.686;10.842;2023-11-19T00:15:10;13.10;;;7.70;;
23290;SDS011;11814;44.686;10.842;2023-11-19T00:17:39;12.65;;;7.82;;
23290;SDS011;11814;44.686;10.842;2023-11-19T00:20:14;13.60;;;8.60;;
23290;SDS011;11814;44.686;10.842;2023-11-19T00:22:41;13.80;;;9.57;;
23290;SDS011;11814;44.686;10.842;2023-11-19T00:25:08;15.70;;;8.90;;
23290;SDS011;11814;44.686;10.842;2023-11-19T00:27:34;13.95;;;9.00;;
23290;SDS011;11814;44.686;10.842;2023-11-19T00:30:00;12.05;;;8.93;;
23290;SDS011;11814;44.686;10.842;2023-11-19T00:32:26;11.75;;;8.50;;
23290;SDS011;11814;44.686;10.842;2023-11-19T00:34:51;14.25;;;8.95;;
23290;SDS011;11814;44.686;10.842;2023-11-19T00:37:17;13.57;;;8.98;;
23290;SDS011;11814;44.686;10.842;2023-11-19T00:39:43;12.63;;;9.20;;
23290;SDS011;11814;44.686;10.842;2023-11-19T00:42:09;12.43;;;8.50;;
23290;SDS011;11814;44.686;10.842;2023-11-19T00:44:35;14.93;;;9.27;;
23290;SDS011;11814;44.686;10.842;2023-11-19T00:47:01;12.18;;;8.00;;
23290;SDS011;11814;44.686;10.842;2023-11-19T00:49:27;13.05;;;8.25;;
23290;SDS011;11814;44.686;10.842;2023-11-19T00:51:53;14.07;;;8.88;;
23290;SDS011;11814;44.686;10.842;2023-11-19T00:54:19;11.48;;;8.27;;
23290;SDS011;11814;44.686;10.842;2023-11-19T00:56:44;11.27;;;8.50;;
23290;SDS011;11814;44.686;10.842;2023-11-19T00:59:10;11.32;;;7.38;;
23290;SDS011;11814;44.686;10.842;2023-11-19T01:01:36;11.07;;;8.02;;
23290;SDS011;11814;44.686;10.842;2023-11-19T01:04:02;14.70;;;9.15;;
23290;SDS011;11814;44.686;10.842;2023-11-19T01:06:30;12.38;;;8.55;;
23290;SDS011;11814;44.686;10.842;2023-11-19T01:08:57;12.52;;;8.95;;
23290;SDS011;11814;44.686;10.842;2023-11-19T01:11:24;14.07;;;8.88;;
23290;SDS011;11814;44.686;10.842;2023-11-19T01:13:50;12.95;;;9.07;;
23290;SDS011;11814;44.686;10.842;2023-11-19T01:16:16;12.50;;;9.05;;
23290;SDS011;11814;44.686;10.842;2023-11-19T01:18:43;13.88;;;8.73;;
23290;SDS011;11814;44.686;10.842;2023-11-19T01:21:09;15.27;;;8.68;;
23290;SDS011;11814;44.686;10.842;2023-11-19T01:23:35;16.30;;;9.57;;
23290;SDS011;11814;44.686;10.842;2023-11-19T01:26:02;14.10;;;8.68;;
23290;SDS011;11814;44.686;10.842;2023-11-19T01:28:28;13.48;;;9.15;;
23290;SDS011;11814;44.686;10.842;2023-11-19T01:30:53;11.80;;;8.80;;
23290;SDS011;11814;44.686;10.842;2023-11-19T01:33:19;13.30;;;9.75;;
23290;SDS011;11814;44.686;10.842;2023-11-19T01:35:46;15.07;;;9.05;;
23290;SDS011;11814;44.686;10.842;2023-11-19T01:38:12;15.75;;;8.77;;
23290;SDS011;11814;44.686;10.842;2023-11-19T01:40:37;18.27;;;10.10;;
23290;SDS011;11814;44.686;10.842;2023-11-19T01:43:03;15.85;;;9.18;;
23290;SDS011;11814;44.686;10.842;2023-11-19T01:45:29;14.63;;;9.07;;
23290;SDS011;11814;44.686;10.842;2023-11-19T01:47:57;11.40;;;8.77;;
23290;SDS011;11814;44.686;10.842;2023-11-19T01:50:24;15.05;;;9.95;;
23290;SDS011;11814;44.686;10.842;2023-11-19T01:52:52;13.57;;;9.45;;
23290;SDS011;11814;44.686;10.842;2023-11-19T01:55:19;14.63;;;10.23;;
23290;SDS011;11814;44.686;10.842;2023-11-19T01:57:46;15.38;;;9.55;;
23290;SDS011;11814;44.686;10.842;2023-11-19T02:00:14;16.95;;;11.18;;
23290;SDS011;11814;44.686;10.842;2023-11-19T02:02:41;16.52;;;9.93;;
23290;SDS011;11814;44.686;10.842;2023-11-19T02:05:08;14.73;;;9.90;;
23290;SDS011;11814;44.686;10.842;2023-11-19T02:07:36;15.75;;;10.20;;
23290;SDS011;11814;44.686;10.842;2023-11-19T02:10:01;14.90;;;10.35;;
23290;SDS011;11814;44.686;10.842;2023-11-19T02:12:27;14.15;;;10.15;;
23290;SDS011;11814;44.686;10.842;2023-11-19T02:14:53;12.60;;;9.52;;
23290;SDS011;11814;44.686;10.842;2023-11-19T02:17:29;16.13;;;10.07;;
23290;SDS011;11814;44.686;10.842;2023-11-19T02:19:59;16.52;;;10.07;;
23290;SDS011;11814;44.686;10.842;2023-11-19T02:22:25;15.55;;;10.77;;
23290;SDS011;11814;44.686;10.842;2023-11-19T02:24:51;15.48;;;11.82;;
23290;SDS011;11814;44.686;10.842;2023-11-19T02:27:30;17.40;;;11.30;;
23290;SDS011;11814;44.686;10.842;2023-11-19T02:30:11;14.77;;;10.20;;
23290;SDS011;11814;44.686;10.842;2023-11-19T02:32:40;15.43;;;10.52;;
23290;SDS011;11814;44.686;10.842;2023-11-19T02:35:06;16.20;;;10.70;;
23290;SDS011;11814;44.686;10.842;2023-11-19T02:37:36;12.60;;;9.10;;
23290;SDS011;11814;44.686;10.842;2023-11-19T02:40:04;15.57;;;9.75;;
23290;SDS011;11814;44.686;10.842;2023-11-19T02:42:30;14.60;;;9.95;;
23290;SDS011;11814;44.686;10.842;2023-11-19T02:44:56;15.50;;;10.80;;
23290;SDS011;11814;44.686;10.842;2023-11-19T02:47:22;16.83;;;10.57;;
23290;SDS011;11814;44.686;10.842;2023-11-19T02:49:49;16.98;;;11.30;;
23290;SDS011;11814;44.686;10.842;2023-11-19T02:52:15;15.57;;;10.82;;
23290;SDS011;11814;44.686;10.842;2023-11-19T02:54:41;14.13;;;9.27;;
23290;SDS011;11814;44.686;10.842;2023-11-19T02:57:08;13.10;;;9.35;;
23290;SDS011;11814;44.686;10.842;2023-11-19T02:59:38;15.55;;;10.10;;
23290;SDS011;11814;44.686;10.842;2023-11-19T03:02:06;13.18;;;9.50;;
23290;SDS011;11814;44.686;10.842;2023-11-19T03:04:36;14.70;;;9.65;;
23290;SDS011;11814;44.686;10.842;2023-11-19T03:07:05;14.57;;;10.13;;
23290;SDS011;11814;44.686;10.842;2023-11-19T03:09:32;15.18;;;10.07;;
23290;SDS011;11814;44.686;10.842;2023-11-19T03:11:59;17.90;;;9.98;;
23290;SDS011;11814;44.686;10.842;2023-11-19T03:14:25;14.32;;;10.50;;
23290;SDS011;11814;44.686;10.842;2023-11-19T03:16:51;16.52;;;10.25;;
23290;SDS011;11814;44.686;10.842;2023-11-19T03:19:16;12.65;;;9.55;;
23290;SDS011;11814;44.686;10.842;2023-11-19T03:21:42;13.20;;;9.63;;
23290;SDS011;11814;44.686;10.842;2023-11-19T03:24:10;17.83;;;10.13;;
23290;SDS011;11814;44.686;10.842;2023-11-19T03:26:37;15.40;;;10.02;;
23290;SDS011;11814;44.686;10.842;2023-11-19T03:29:04;13.45;;;10.02;;
23290;SDS011;11814;44.686;10.842;2023-11-19T03:31:30;14.98;;;9.75;;
23290;SDS011;11814;44.686;10.842;2023-11-19T03:33:56;13.13;;;9.57;;
23290;SDS011;11814;44.686;10.842;2023-11-19T03:36:21;16.40;;;9.98;;
23290;SDS011;11814;44.686;10.842;2023-11-19T03:38:47;13.32;;;9.75;;
23290;SDS011;11814;44.686;10.842;2023-11-19T03:41:13;15.85;;;10.23;;
23290;SDS011;11814;44.686;10.842;2023-11-19T03:43:39;12.48;;;9.50;;
23290;SDS011;11814;44.686;10.842;2023-11-19T03:46:16;14.63;;;9.52;;
23290;SDS011;11814;44.686;10.842;2023-11-19T03:48:42;14.52;;;9.38;;
23290;SDS011;11814;44.686;10.842;2023-11-19T03:51:08;15.73;;;9.38;;
23290;SDS011;11814;44.686;10.842;2023-11-19T03:53:34;16.20;;;10.48;;
23290;SDS011;11814;44.686;10.842;2023-11-19T03:56:00;14.93;;;8.90;;
23290;SDS011;11814;44.686;10.842;2023-11-19T03:58:26;13.45;;;9.48;;
23290;SDS011;11814;44.686;10.842;2023-11-19T04:00:51;13.75;;;9.10;;
23290;SDS011;11814;44.686;10.842;2023-11-19T04:03:17;13.07;;;8.98;;
23290;SDS011;11814;44.686;10.842;2023-11-19T04:05:44;14.13;;;9.20;;
23290;SDS011;11814;44.686;10.842;2023-11-19T04:08:10;13.73;;;8.75;;
23290;SDS011;11814;44.686;10.842;2023-11-19T04:10:36;12.85;;;8.82;;
23290;SDS011;11814;44.686;10.842;2023-11-19T04:13:01;11.95;;;9.30;;
23290;SDS011;11814;44.686;10.842;2023-11-19T04:15:27;15.20;;;8.80;;
23290;SDS011;11814;44.686;10.842;2023-11-19T04:17:52;13.05;;;9.40;;
23290;SDS011;11814;44.686;10.842;2023-11-19T04:20:18;12.35;;;9.07;;
23290;SDS011;11814;44.686;10.842;2023-11-19T04:22:44;13.70;;;9.55;;
23290;SDS011;11814;44.686;10.842;2023-11-19T04:25:09;12.32;;;9.20;;
23290;SDS011;11814;44.686;10.842;2023-11-19T04:27:36;14.25;;;9.70;;
23290;SDS011;11814;44.686;10.842;2023-11-19T04:30:01;12.07;;;9.35;;
23290;SDS011;11814;44.686;10.842;2023-11-19T04:32:28;13.75;;;10.15;;
23290;SDS011;11814;44.686;10.842;2023-11-19T04:34:54;11.38;;;8.63;;
23290;SDS011;11814;44.686;10.842;2023-11-19T04:37:20;14.02;;;8.90;;
23290;SDS011;11814;44.686;10.842;2023-11-19T04:39:45;14.57;;;9.40;;
23290;SDS011;11814;44.686;10.842;2023-11-19T04:42:11;14.95;;;9.45;;
23290;SDS011;11814;44.686;10.842;2023-11-19T04:44:37;13.00;;;8.50;;
23290;SDS011;11814;44.686;10.842;2023-11-19T04:47:03;13.65;;;9.63;;
23290;SDS011;11814;44.686;10.842;2023-11-19T04:49:29;17.02;;;9.60;;
23290;SDS011;11814;44.686;10.842;2023-11-19T04:51:55;12.50;;;9.23;;
23290;SDS011;11814;44.686;10.842;2023-11-19T04:54:21;14.25;;;10.27;;
23290;SDS011;11814;44.686;10.842;2023-11-19T04:56:47;13.25;;;10.05;;
23290;SDS011;11814;44.686;10.842;2023-11-19T04:59:12;14.40;;;9.27;;
23290;SDS011;11814;44.686;10.842;2023-11-19T05:01:38;12.07;;;8.57;;
23290;SDS011;11814;44.686;10.842;2023-11-19T05:04:04;14.43;;;8.82;;
23290;SDS011;11814;44.686;10.842;2023-11-19T05:06:30;12.05;;;8.98;;
23290;SDS011;11814;44.686;10.842;2023-11-19T05:08:58;14.65;;;8.88;;
23290;SDS011;11814;44.686;10.842;2023-11-19T05:11:26;11.30;;;7.95;;
23290;SDS011;11814;44.686;10.842;2023-11-19T05:13:53;11.75;;;8.18;;
23290;SDS011;11814;44.686;10.842;2023-11-19T05:16:19;10.23;;;7.82;;
23290;SDS011;11814;44.686;10.842;2023-11-19T05:18:46;11.10;;;7.50;;
23290;SDS011;11814;44.686;10.842;2023-11-19T05:21:11;9.80;;;7.60;;
23290;SDS011;11814;44.686;10.842;2023-11-19T05:23:37;9.13;;;7.15;;
23290;SDS011;11814;44.686;10.842;2023-11-19T05:26:04;11.75;;;7.22;;
23290;SDS011;11814;44.686;10.842;2023-11-19T05:28:30;10.43;;;7.38;;
23290;SDS011;11814;44.686;10.842;2023-11-19T05:30:55;8.77;;;6.97;;
23290;SDS011;11814;44.686;10.842;2023-11-19T05:33:21;12.45;;;7.35;;
23290;SDS011;11814;44.686;10.842;2023-11-19T05:35:47;11.18;;;7.60;;
23290;SDS011;11814;44.686;10.842;2023-11-19T05:38:13;13.35;;;7.57;;
23290;SDS011;11814;44.686;10.842;2023-11-19T05:40:39;11.70;;;7.07;;
23290;SDS011;11814;44.686;10.842;2023-11-19T05:43:06;8.50;;;6.90;;
23290;SDS011;11814;44.686;10.842;2023-11-19T05:45:31;8.63;;;6.95;;
23290;SDS011;11814;44.686;10.842;2023-11-19T05:47:57;9.32;;;6.75;;
23290;SDS011;11814;44.686;10.842;2023-11-19T05:50:23;9.35;;;7.20;;
23290;SDS011;11814;44.686;10.842;2023-11-19T05:52:49;9.63;;;7.13;;
23290;SDS011;11814;44.686;10.842;2023-11-19T05:55:15;8.77;;;6.25;;
23290;SDS011;11814;44.686;10.842;2023-11-19T05:57:41;9.27;;;6.63;;
23290;SDS011;11814;44.686;10.842;2023-11-19T06:00:07;8.05;;;6.78;;
23290;SDS011;11814;44.686;10.842;2023-11-19T06:02:33;10.50;;;6.43;;
23290;SDS011;11814;44.686;10.842;2023-11-19T06:04:59;7.90;;;5.97;;
23290;SDS011;11814;44.686;10.842;2023-11-19T06:07:26;9.90;;;6.53;;
23290;SDS011;11814;44.686;10.842;2023-11-19T06:09:52;14.27;;;7.13;;
23290;SDS011;11814;44.686;10.842;2023-11-19T06:12:17;8.43;;;6.68;;
23290;SDS011;11814;44.686;10.842;2023-11-19T06:14:43;10.27;;;6.30;;
23290;SDS011;11814;44.686;10.842;2023-11-19T06:17:08;13.32;;;7.07;;
23290;SDS011;11814;44.686;10.842;2023-11-19T06:19:36;9.48;;;6.57;;
23290;SDS011;11814;44.686;10.842;2023-11-19T06:22:03;9.65;;;6.95;;
23290;SDS011;11814;44.686;10.842;2023-11-19T06:24:28;10.13;;;6.20;;
23290;SDS011;11814;44.686;10.842;2023-11-19T06:26:54;8.75;;;6.38;;
23290;SDS011;11814;44.686;10.842;2023-11-19T06:29:20;10.02;;;6.38;;
23290;SDS011;11814;44.686;10.842;2023-11-19T06:31:46;9.57;;;6.53;;
23290;SDS011;11814;44.686;10.842;2023-11-19T06:34:14;13.18;;;6.60;;
23290;SDS011;11814;44.686;10.842;2023-11-19T06:36:40;8.65;;;6.00;;
23290;SDS011;11814;44.686;10.842;2023-11-19T06:39:08;11.43;;;6.43;;
23290;SDS011;11814;44.686;10.842;2023-11-19T06:41:35;7.13;;;6.40;;
23290;SDS011;11814;44.686;10.842;2023-11-19T06:44:02;7.20;;;6.35;;
23290;SDS011;11814;44.686;10.842;2023-11-19T06:46:29;11.15;;;6.72;;
23290;SDS011;11814;44.686;10.842;2023-11-19T06:48:56;9.25;;;6.82;;
23290;SDS011;11814;44.686;10.842;2023-11-19T06:51:22;8.65;;;6.40;;
23290;SDS011;11814;44.686;10.842;2023-11-19T06:53:49;8.35;;;5.95;;
23290;SDS011;11814;44.686;10.842;2023-11-19T06:56:21;7.60;;;6.00;;
23290;SDS011;11814;44.686;10.842;2023-11-19T06:58:47;7.70;;;6.35;;
23290;SDS011;11814;44.686;10.842;2023-11-19T07:01:14;9.43;;;6.07;;
23290;SDS011;11814;44.686;10.842;2023-11-19T07:03:40;7.50;;;5.90;;
23290;SDS011;11814;44.686;10.842;2023-11-19T07:06:06;12.15;;;6.65;;
23290;SDS011;11814;44.686;10.842;2023-11-19T07:08:32;11.43;;;7.10;;
23290;SDS011;11814;44.686;10.842;2023-11-19T07:10:57;10.05;;;7.25;;
23290;SDS011;11814;44.686;10.842;2023-11-19T07:13:23;11.80;;;7.00;;
23290;SDS011;11814;44.686;10.842;2023-11-19T07:15:48;15.25;;;7.43;;
23290;SDS011;11814;44.686;10.842;2023-11-19T07:18:14;11.02;;;6.88;;
23290;SDS011;11814;44.686;10.842;2023-11-19T07:20:40;11.73;;;7.50;;
23290;SDS011;11814;44.686;10.842;2023-11-19T07:23:06;9.48;;;6.40;;
23290;SDS011;11814;44.686;10.842;2023-11-19T07:25:31;9.02;;;6.10;;
23290;SDS011;11814;44.686;10.842;2023-11-19T07:27:57;10.48;;;7.88;;
23290;SDS011;11814;44.686;10.842;2023-11-19T07:30:22;11.55;;;7.55;;
23290;SDS011;11814;44.686;10.842;2023-11-19T07:32:48;13.32;;;7.53;;
23290;SDS011;11814;44.686;10.842;2023-11-19T07:35:14;13.65;;;7.75;;
23290;SDS011;11814;44.686;10.842;2023-11-19T07:37:43;12.18;;;7.53;;
23290;SDS011;11814;44.686;10.842;2023-11-19T07:40:11;13.38;;;9.20;;
23290;SDS011;11814;44.686;10.842;2023-11-19T07:42:36;13.75;;;8.68;;
23290;SDS011;11814;44.686;10.842;2023-11-19T07:45:03;12.00;;;8.45;;
23290;SDS011;11814;44.686;10.842;2023-11-19T07:47:30;11.82;;;7.75;;
23290;SDS011;11814;44.686;10.842;2023-11-19T07:49:56;21.27;;;9.88;;
23290;SDS011;11814;44.686;10.842;2023-11-19T07:52:21;19.70;;;11.65;;
23290;SDS011;11814;44.686;10.842;2023-11-19T07:54:47;20.00;;;11.55;;
23290;SDS011;11814;44.686;10.842;2023-11-19T07:57:13;20.13;;;11.07;;
23290;SDS011;11814;44.686;10.842;2023-11-19T07:59:40;22.08;;;10.77;;
23290;SDS011;11814;44.686;10.842;2023-11-19T08:02:06;14.73;;;9.20;;
23290;SDS011;11814;44.686;10.842;2023-11-19T08:04:31;13.25;;;7.38;;
23290;SDS011;11814;44.686;10.842;2023-11-19T08:06:57;13.60;;;7.35;;
23290;SDS011;11814;44.686;10.842;2023-11-19T08:09:22;15.10;;;7.15;;
23290;SDS011;11814;44.686;10.842;2023-11-19T08:11:48;12.25;;;6.47;;
23290;SDS011;11814;44.686;10.842;2023-11-19T08:14:14;11.05;;;6.30;;
23290;SDS011;11814;44.686;10.842;2023-11-19T08:16:40;9.88;;;5.50;;
23290;SDS011;11814;44.686;10.842;2023-11-19T08:19:06;10.73;;;5.70;;
23290;SDS011;11814;44.686;10.842;2023-11-19T08:21:33;15.80;;;5.93;;
23290;SDS011;11814;44.686;10.842;2023-11-19T08:23:59;13.25;;;6.72;;
23290;SDS011;11814;44.686;10.842;2023-11-19T08:26:24;8.25;;;6.18;;
23290;SDS011;11814;44.686;10.842;2023-11-19T08:28:50;7.72;;;5.20;;
23290;SDS011;11814;44.686;10.842;2023-11-19T08:31:17;7.82;;;4.80;;
23290;SDS011;11814;44.686;10.842;2023-11-19T08:33:42;7.53;;;4.28;;
23290;SDS011;11814;44.686;10.842;2023-11-19T08:36:08;5.85;;;4.22;;
23290;SDS011;11814;44.686;10.842;2023-11-19T08:38:40;8.98;;;4.20;;
23290;SDS011;11814;44.686;10.842;2023-11-19T08:41:05;6.80;;;4.13;;
23290;SDS011;11814;44.686;10.842;2023-11-19T08:43:31;5.15;;;3.58;;
23290;SDS011;11814;44.686;10.842;2023-11-19T08:45:56;4.00;;;2.75;;
23290;SDS011;11814;44.686;10.842;2023-11-19T08:48:22;3.45;;;2.50;;
23290;SDS011;11814;44.686;10.842;2023-11-19T08:50:48;2.58;;;1.98;;
23290;SDS011;11814;44.686;10.842;2023-11-19T08:53:13;3.42;;;2.75;;
23290;SDS011;11814;44.686;10.842;2023-11-19T08:55:39;6.72;;;2.45;;
23290;SDS011;11814;44.686;10.842;2023-11-19T08:58:04;9.68;;;3.13;;
23290;SDS011;11814;44.686;10.842;2023-11-19T09:00:31;4.03;;;2.55;;
23290;SDS011;11814;44.686;10.842;2023-11-19T09:02:57;8.05;;;2.70;;
23290;SDS011;11814;44.686;10.842;2023-11-19T09:05:23;3.67;;;2.47;;
23290;SDS011;11814;44.686;10.842;2023-11-19T09:07:48;3.60;;;2.90;;
23290;SDS011;11814;44.686;10.842;2023-11-19T09:10:14;5.30;;;3.10;;
23290;SDS011;11814;44.686;10.842;2023-11-19T09:12:40;3.50;;;2.17;;
23290;SDS011;11814;44.686;10.842;2023-11-19T09:15:06;5.85;;;2.78;;
23290;SDS011;11814;44.686;10.842;2023-11-19T09:17:32;5.40;;;3.65;;
23290;SDS011;11814;44.686;10.842;2023-11-19T09:19:58;5.18;;;4.45;;
23290;SDS011;11814;44.686;10.842;2023-11-19T09:22:24;6.20;;;4.25;;
23290;SDS011;11814;44.686;10.842;2023-11-19T09:24:49;7.22;;;5.07;;
23290;SDS011;11814;44.686;10.842;2023-11-19T09:27:16;6.05;;;5.15;;
23290;SDS011;11814;44.686;10.842;2023-11-19T09:29:42;9.52;;;4.97;;
23290;SDS011;11814;44.686;10.842;2023-11-19T09:32:08;6.38;;;4.60;;
23290;SDS011;11814;44.686;10.842;2023-11-19T09:34:33;5.15;;;4.38;;
23290;SDS011;11814;44.686;10.842;2023-11-19T09:36:59;5.85;;;4.50;;
23290;SDS011;11814;44.686;10.842;2023-11-19T09:39:25;7.72;;;5.03;;
23290;SDS011;11814;44.686;10.842;2023-11-19T09:41:51;6.78;;;4.70;;
23290;SDS011;11814;44.686;10.842;2023-11-19T09:44:17;6.25;;;5.45;;
23290;SDS011;11814;44.686;10.842;2023-11-19T09:46:44;7.10;;;5.30;;
23290;SDS011;11814;44.686;10.842;2023-11-19T09:49:11;9.75;;;5.60;;
23290;SDS011;11814;44.686;10.842;2023-11-19T09:51:38;8.32;;;5.22;;
23290;SDS011;11814;44.686;10.842;2023-11-19T09:54:03;6.63;;;5.63;;
23290;SDS011;11814;44.686;10.842;2023-11-19T09:56:29;6.38;;;5.28;;
23290;SDS011;11814;44.686;10.842;2023-11-19T09:58:58;7.65;;;5.80;;
23290;SDS011;11814;44.686;10.842;2023-11-19T10:01:24;8.13;;;5.88;;
23290;SDS011;11814;44.686;10.842;2023-11-19T10:03:50;9.20;;;6.13;;
23290;SDS011;11814;44.686;10.842;2023-11-19T10:06:20;7.80;;;6.28;;
23290;SDS011;11814;44.686;10.842;2023-11-19T10:08:46;7.70;;;6.05;;
23290;SDS011;11814;44.686;10.842;2023-11-19T10:11:12;9.48;;;6.00;;
23290;SDS011;11814;44.686;10.842;2023-11-19T10:13:38;8.15;;;6.13;;
23290;SDS011;11814;44.686;10.842;2023-11-19T10:16:08;7.60;;;5.88;;
23290;SDS011;11814;44.686;10.842;2023-11-19T10:18:37;9.02;;;5.95;;
23290;SDS011;11814;44.686;10.842;2023-11-19T10:21:13;9.32;;;5.40;;
23290;SDS011;11814;44.686;10.842;2023-11-19T10:24:00;7.57;;;5.53;;
23290;SDS011;11814;44.686;10.842;2023-11-19T10:26:26;9.27;;;6.30;;
23290;SDS011;11814;44.686;10.842;2023-11-19T10:28:53;7.18;;;5.93;;
23290;SDS011;11814;44.686;10.842;2023-11-19T10:31:20;10.57;;;6.68;;
23290;SDS011;11814;44.686;10.842;2023-11-19T10:33:50;9.77;;;6.90;;
23290;SDS011;11814;44.686;10.842;2023-11-19T10:36:16;8.70;;;6.55;;
23290;SDS011;11814;44.686;10.842;2023-11-19T10:38:51;9.50;;;6.15;;
23290;SDS011;11814;44.686;10.842;2023-11-19T10:41:39;9.00;;;5.60;;
23290;SDS011;11814;44.686;10.842;2023-11-19T10:44:05;9.15;;;7.13;;
23290;SDS011;11814;44.686;10.842;2023-11-19T10:46:38;8.30;;;6.65;;
23290;SDS011;11814;44.686;10.842;2023-11-19T10:49:05;9.57;;;5.95;;
23290;SDS011;11814;44.686;10.842;2023-11-19T10:51:32;10.88;;;6.60;;
23290;SDS011;11814;44.686;10.842;2023-11-19T10:54:00;8.98;;;6.72;;
23290;SDS011;11814;44.686;10.842;2023-11-19T10:56:30;8.13;;;6.60;;
23290;SDS011;11814;44.686;10.842;2023-11-19T10:58:58;9.15;;;6.80;;
23290;SDS011;11814;44.686;10.842;2023-11-19T11:01:26;7.57;;;6.53;;
23290;SDS011;11814;44.686;10.842;2023-11-19T11:03:59;8.43;;;7.13;;
23290;SDS011;11814;44.686;10.842;2023-11-19T11:06:26;8.85;;;6.70;;
23290;SDS011;11814;44.686;10.842;2023-11-19T11:08:52;11.27;;;7.25;;
23290;SDS011;11814;44.686;10.842;2023-11-19T11:11:19;8.25;;;6.30;;
23290;SDS011;11814;44.686;10.842;2023-11-19T11:13:47;7.70;;;6.45;;
23290;SDS011;11814;44.686;10.842;2023-11-19T11:16:17;9.50;;;6.22;;
23290;SDS011;11814;44.686;10.842;2023-11-19T11:18:45;8.20;;;6.10;;
23290;SDS011;11814;44.686;10.842;2023-11-19T11:21:17;8.00;;;6.18;;
23290;SDS011;11814;44.686;10.842;2023-11-19T11:39:57;7.75;;;5.90;;
23290;SDS011;11814;44.686;10.842;2023-11-19T11:55:26;8.48;;;6.07;;
23290;SDS011;11814;44.686;10.842;2023-11-19T11:58:02;10.27;;;6.05;;
23290;SDS011;11814;44.686;10.842;2023-11-19T12:02:55;7.80;;;5.93;;
23290;SDS011;11814;44.686;10.842;2023-11-19T12:05:22;9.80;;;5.80;;
23290;SDS011;11814;44.686;10.842;2023-11-19T12:07:54;9.38;;;6.15;;
23290;SDS011;11814;44.686;10.842;2023-11-19T12:10:20;8.75;;;5.93;;
23290;SDS011;11814;44.686;10.842;2023-11-19T12:12:47;9.00;;;6.25;;
23290;SDS011;11814;44.686;10.842;2023-11-19T12:15:12;7.93;;;6.18;;
23290;SDS011;11814;44.686;10.842;2023-11-19T12:17:43;9.32;;;6.10;;
23290;SDS011;11814;44.686;10.842;2023-11-19T12:20:14;8.57;;;6.60;;
23290;SDS011;11814;44.686;10.842;2023-11-19T12:22:41;8.40;;;6.13;;
23290;SDS011;11814;44.686;10.842;2023-11-19T12:25:09;9.63;;;6.38;;
23290;SDS011;11814;44.686;10.842;2023-11-19T12:27:36;8.32;;;6.43;;
23290;SDS011;11814;44.686;10.842;2023-11-19T12:30:16;9.77;;;6.35;;
23290;SDS011;11814;44.686;10.842;2023-11-19T12:32:43;9.40;;;6.63;;
23290;SDS011;11814;44.686;10.842;2023-11-19T12:35:10;8.50;;;6.03;;
23290;SDS011;11814;44.686;10.842;2023-11-19T12:37:44;7.85;;;5.97;;
23290;SDS011;11814;44.686;10.842;2023-11-19T12:40:14;12.65;;;6.13;;
23290;SDS011;11814;44.686;10.842;2023-11-19T12:42:53;7.43;;;6.10;;
23290;SDS011;11814;44.686;10.842;2023-11-19T12:45:20;9.43;;;6.15;;
23290;SDS011;11814;44.686;10.842;2023-11-19T12:47:48;9.23;;;5.75;;
23290;SDS011;11814;44.686;10.842;2023-11-19T12:50:15;8.27;;;5.00;;
23290;SDS011;11814;44.686;10.842;2023-11-19T12:52:43;8.60;;;5.57;;
23290;SDS011;11814;44.686;10.842;2023-11-19T12:55:27;10.25;;;6.30;;
23290;SDS011;11814;44.686;10.842;2023-11-19T12:57:54;7.97;;;5.53;;
23290;SDS011;11814;44.686;10.842;2023-11-19T13:00:24;8.02;;;5.57;;
23290;SDS011;11814;44.686;10.842;2023-11-19T13:02:51;9.00;;;5.85;;
23290;SDS011;11814;44.686;10.842;2023-11-19T13:05:28;6.22;;;4.72;;
23290;SDS011;11814;44.686;10.842;2023-11-19T13:08:02;10.32;;;5.45;;
23290;SDS011;11814;44.686;10.842;2023-11-19T13:10:32;5.72;;;4.32;;
23290;SDS011;11814;44.686;10.842;2023-11-19T13:13:08;8.20;;;4.25;;
23290;SDS011;11814;44.686;10.842;2023-11-19T13:15:34;7.72;;;4.53;;
23290;SDS011;11814;44.686;10.842;2023-11-19T13:18:01;6.45;;;4.60;;
23290;SDS011;11814;44.686;10.842;2023-11-19T13:20:28;7.80;;;5.15;;
23290;SDS011;11814;44.686;10.842;2023-11-19T13:22:58;5.97;;;4.55;;
23290;SDS011;11814;44.686;10.842;2023-11-19T13:25:24;6.32;;;4.63;;
23290;SDS011;11814;44.686;10.842;2023-11-19T13:27:54;9.40;;;4.93;;
23290;SDS011;11814;44.686;10.842;2023-11-19T13:30:20;8.27;;;4.88;;
23290;SDS011;11814;44.686;10.842;2023-11-19T13:32:50;9.32;;;5.18;;
23290;SDS011;11814;44.686;10.842;2023-11-19T13:35:17;6.13;;;4.25;;
23290;SDS011;11814;44.686;10.842;2023-11-19T13:37:44;7.68;;;4.40;;
23290;SDS011;11814;44.686;10.842;2023-11-19T13:40:10;7.55;;;4.60;;
23290;SDS011;11814;44.686;10.842;2023-11-19T13:42:42;8.82;;;4.88;;
23290;SDS011;11814;44.686;10.842;2023-11-19T13:45:17;12.18;;;4.82;;
23290;SDS011;11814;44.686;10.842;2023-11-19T13:47:43;8.50;;;4.70;;
23290;SDS011;11814;44.686;10.842;2023-11-19T13:50:11;7.80;;;4.50;;
23290;SDS011;11814;44.686;10.842;2023-11-19T13:52:38;8.63;;;5.47;;
23290;SDS011;11814;44.686;10.842;2023-11-19T13:55:06;6.38;;;5.07;;
23290;SDS011;11814;44.686;10.842;2023-11-19T13:57:34;11.88;;;5.40;;
23290;SDS011;11814;44.686;10.842;2023-11-19T14:00:04;9.07;;;5.00;;
23290;SDS011;11814;44.686;10.842;2023-11-19T14:02:31;10.23;;;5.85;;
23290;SDS011;11814;44.686;10.842;2023-11-19T14:05:00;8.98;;;5.85;;
23290;SDS011;11814;44.686;10.842;2023-11-19T14:07:26;11.13;;;5.40;;
23290;SDS011;11814;44.686;10.842;2023-11-19T14:09:52;6.40;;;5.05;;
23290;SDS011;11814;44.686;10.842;2023-11-19T14:12:19;8.63;;;5.78;;
23290;SDS011;11814;44.686;10.842;2023-11-19T14:14:45;9.07;;;5.60;;
23290;SDS011;11814;44.686;10.842;2023-11-19T14:17:11;9.20;;;5.88;;
23290;SDS011;11814;44.686;10.842;2023-11-19T14:19:36;9.27;;;6.07;;
23290;SDS011;11814;44.686;10.842;2023-11-19T14:22:04;11.15;;;6.40;;
23290;SDS011;11814;44.686;10.842;2023-11-19T14:24:30;10.38;;;6.28;;
23290;SDS011;11814;44.686;10.842;2023-11-19T14:26:55;14.75;;;7.20;;
23290;SDS011;11814;44.686;10.842;2023-11-19T14:29:24;9.70;;;6.57;;
23290;SDS011;11814;44.686;10.842;2023-11-19T14:31:51;9.13;;;6.38;;
23290;SDS011;11814;44.686;10.842;2023-11-19T14:34:18;12.57;;;6.60;;
23290;SDS011;11814;44.686;10.842;2023-11-19T14:36:47;10.95;;;6.30;;
23290;SDS011;11814;44.686;10.842;2023-11-19T14:39:14;11.77;;;7.00;;
23290;SDS011;11814;44.686;10.842;2023-11-19T14:41:39;10.35;;;6.25;;
23290;SDS011;11814;44.686;10.842;2023-11-19T14:44:05;9.35;;;6.40;;
23290;SDS011;11814;44.686;10.842;2023-11-19T14:46:31;11.68;;;7.07;;
23290;SDS011;11814;44.686;10.842;2023-11-19T14:48:56;9.90;;;6.95;;
23290;SDS011;11814;44.686;10.842;2023-11-19T14:51:22;13.65;;;6.68;;
23290;SDS011;11814;44.686;10.842;2023-11-19T14:53:48;13.98;;;6.68;;
23290;SDS011;11814;44.686;10.842;2023-11-19T14:56:13;13.50;;;7.35;;